Sonoma County Weather
Create Custom Reports and Graphics: Custom Report

North/Central Map

Map

15 Minute Data

South County Map

Map

15 Minute Data

Northern Sonoma County Latest

16 Stations

15 Minute Data | America/Los_Angeles
as of 1/17/22 10:06 PM PST
Station Date Time Temp (°F) RH (%) Dew Pt (°F) Wind Spd (mph) Wind Dir (°) Wind Gust (mph) Latest Rain (In) Daily Rain (In) Daily Min Temp (°F) Daily Max Temp (°F)
Rockpile Lower (Cooley) 1/17/22 2145 50.5   1.1 64   6 38.6   1.5 2.3 NNW | 340 3.6   0.8 0.00 0.00 47.1   0.0 63.7   3.0
Rockpile Upper (Cooley) 1/17/22 2200 49.9   1.9 67   19 39.3   6.5 4.3 NW | 307 6.1   3.1 0.00 0.00 48.3   1.1 60.3   2.3
Cloverdale-East (Ranch 83) 1/17/22 2200 38.7   1.3 99   5 38.5   0.1 1.4 ESE | 122 2.3   0.4 0.00 0.00 36.4   2.6 62.2   0.1
Cloverdale-SE (Ranch 38) 1/17/22 2200 46.6   0.4 84   4 42.0   1.6 0.9 ESE | 109 1.5   0.0 0.00 0.00 41.5   2.3 61.8   5.4
Geyserville-North (Hoffman) 1/17/22 2145 40.4   0.6 94   2 38.9   1.3 1.8 WNW | 285 2.8   1.3 0.00 0.00 31.6   7.2 60.5   2.9
Geyserville (Ranch 3) 1/17/22 2200 42.2   2.7 96   0 41.0   2.7 1.8 WNW | 302 3.6   3.6 0.00 0.00 33.2   5.9 60.4   2.4
Geyserville-East (Ranch 40) 1/17/22 2200 49.7   0.5 72   0 40.9   0.3 1.5 NE | 42 4.7   3.8 0.00 0.00 41.5   2.2 60.6   5.9
Geyserville-South (Nervo Station) 1/17/22 2200 45.0   1.1 88   4 41.8   0.1 0.2 SSW | 197 2.1   0.0 0.00 0.01 36.5   5.9 61.7   3.8
Lytton (River Oaks) 1/17/22 2200 37.9   0.9 96   0 36.9   0.7 1.0 W | 274 1.8   0.4 0.00 0.00 30.8   6.0 66.3   3.1
Jimtown-North (Piccolo-R15) 1/17/22 2200 39.1   0.9 100   0 39.1   0.9 1.1 NE | 46 2.2   1.1 0.00 0.00 31.5   6.2 63.2   2.1
Jimtown-NE (Red Fan) 1/17/22 2200 40.4   0.1 97   0 39.6   0.0 2.0 NNE | 20 3.5   1.4 0.00 0.00 33.1   6.9 63.0   3.4
HWY 128/Chalk Hill Rd (Landslide) 1/17/22 2200 38.4   0.6 98   0 37.8   0.5 0.0 N | 0 0.0   2.1 0.00 0.00 32.1   5.4 63.2   3.4
N Chalk Hill Rd (Ranch 63) 1/17/22 2200 39.5   0.0 95   2 38.3   0.5 0.1 E | 101 1.2   0.7 0.00 0.00 32.1   6.8 60.4   2.8
Knights Valley (Bavarian Lion) 1/17/22 2200 40.5   0.2 96   2 39.4   0.6 0.7 SW | 214 1.7   1.1 0.00 0.00 33.2   6.3 62.5   2.0
Upper Dry Creek Valley 1/17/22 2200 40.6   0.5 98   1 40.1   0.7 0.4 NNW | 332 1.5   0.1 0.00 0.00 34.9   5.1 60.9   2.0
Lower Dry Creek Valley 1/17/22 2200 40.4   0.9 98   1 39.9   1.2 1.6 NW | 313 3.2   1.4 0.00 0.00 34.2   5.1 60.9   5.4
Max     50.5 100 42.0 4.3 - 6.1 0.00 0.01 48.3 66.3
Avg     42.5 90 39.5 1.3 - 2.6 0.00 - - -
Min     37.9 64 36.9 0.0 - 0.0 0.00 0.00 30.8 60.3

Central Sonoma County Latest

29 Stations

15 Minute Data | America/Los_Angeles
as of 1/17/22 10:06 PM PST
Station Date Time Temp (°F) RH (%) Dew Pt (°F) Wind Spd (mph) Wind Dir (°) Wind Gust (mph) Latest Rain (In) Daily Rain (In) Daily Min Temp (°F) Daily Max Temp (°F)
Healdsburg-South (Sodini) 1/17/22 2200 40.6   0.1 94   2 39.0   0.7 0.0 N | 0 0.0   0.0 0.00 0.00 34.4   5.8 62.9   4.5
Windsor-NW (Ranch 8) 1/17/22 2200 45.2   0.8 84   0 40.7   0.8 0.4 NW | 314 1.6   0.7 0.00 0.00 38.6   5.0 66.3   6.6
Windsor-East (Ranch 16) 1/17/22 2200 41.0   0.9 92   5 39.0   2.3 0.2 WNW | 290 1.5   0.0 0.00 0.00 34.6   6.4 64.4   2.7
Mark West-North (Ranch 14) 1/17/22 2200 42.5   0.5 92   5 40.4   0.8 0.3 SW | 220 1.5   1.5 0.00 0.00 35.4   5.8 62.5   4.0
Windsor-SE (Silk Rd) 1/17/22 2200 40.0   0.2 98   0 39.4   0.3 0.0 N | 0 0.0   0.0 0.00 0.00 33.8   6.1 62.9   2.7
Fulton-NW (Ranch 5) 1/17/22 2200 40.5   0.2 97   2 39.7   0.7 0.0 NNW | 328 0.2   1.7 0.00 0.00 34.1   6.2 59.8   3.8
Windsor-South (Laughlin Rd) 1/17/22 2200 43.8   0.0 - - - - - 0.00 0.00 35.7   5.8 60.5   4.9
Fulton-SE (Barnes Rd) 1/17/22 2200 42.4   0.4 92   5 40.3   1.7 0.3 S | 187 1.1   0.0 0.00 0.00 34.9   6.2 58.8   5.0
Fulton-SW (Ranch 21) 1/17/22 2200 42.6   1.0 95   0 41.4   1.1 1.3 SE | 128 1.9   1.1 0.00 0.00 35.1   5.6 59.8   4.1
Santa Rosa-NW (Goldfields) 1/17/22 2200 42.8   0.6 97   2 42.0   1.3 0.9 SSE | 158 2.0   2.0 0.00 0.00 34.5   6.9 62.4   9.0
NW Santa Rosa (Piner Road) 1/17/22 2200 41.2   0.7 97   1 40.6   1.1 0.0 N | 0 0.0   0.8 0.00 0.00 34.6   5.9 59.4   3.4
River Rd South (Denner Ranch) 1/17/22 2200 43.1   0.2 98   1 42.7   0.1 0.7 SW | 225 1.8   0.7 - - 35.8   5.4 61.6   4.7
West Santa Rosa (Hawk's Roost) 1/17/22 2200 42.2   0.0 97   1 41.4   0.3 0.0 E | 101 0.7   0.7 0.00 0.00 35.0   5.7 61.2   2.4
Guerneville Rd (Prokopakis) 1/17/22 2200 43.0   0.5 98   1 42.6   0.8 - - - 0.00 0.00 36.4   5.3 60.0   3.6
Guerneville Rd West (Balletto) 1/17/22 2200 41.4   0.2 98   1 40.8   0.3 0.2 E | 79 1.1   0.3 0.00 0.00 34.3   7.0 59.7   2.2
Guerneville Rd East (Rich Ranch) 1/17/22 2200 41.4   0.5 97   2 40.7   0.9 - - - - - 34.8   6.0 60.4   3.7
Occidental Rd (Sebastopol) 1/17/22 2200 41.2   0.9 95   3 40.0   1.8 1.5 S | 176 2.6   2.6 0.00 0.00 - 85.7   0.5
Lower Westside Rd (Ranch 12) 1/17/22 2200 41.4   0.1 97   0 40.6   0.1 0.2 W | 265 1.7   1.7 0.00 0.00 34.5   6.1 65.7   0.3
Guerneville (Laughlin Rd) 1/17/22 2200 43.2   3.9 100   0 43.2   3.9 0.2 S | 182 1.2   0.2 0.00 0.01 37.9   0.9 61.0   6.4
Korbel (Winery) 1/17/22 2200 42.5   0.2 99   0 42.2   0.4 0.1 ESE | 118 0.8   0.5 0.00 0.00 39.1   2.9 62.6   4.3
Forestville (Shone Farms) 1/17/22 2200 44.0   0.6 95   1 42.6   0.9 0.3 WNW | 285 2.1   1.1 0.00 0.00 35.6   6.4 61.8   2.2
Forestville-NE (Ranch 30) 1/17/22 2200 42.2   0.4 98   0 41.7   0.4 0.4 NNW | 347 1.8   0.7 0.00 0.00 35.8   5.1 65.1   5.1
Green Valley Vineyard 1/17/22 2200 43.8   0.2 97   1 42.9   0.5 1.5 NW | 308 2.8   0.4 0.00 0.00 37.0   5.3 61.2   2.3
Graton-West (Dutton Ranch) 1/17/22 2200 41.7   0.6 100   0 41.7   0.6 0.6 SE | 130 1.5   0.5 0.00 0.00 34.7   5.9 62.4   2.2
Graton-South (Mill Station Rd) 1/17/22 2200 39.6   0.9 96   0 38.5   0.8 1.5 ESE | 116 3.6   2.5 0.00 0.00 33.7   4.3 61.2   1.2
Occidental (Horseshoe Bend) 1/17/22 2200 46.3   3.2 81   3 40.7   4.0 - - - - - 44.9   2.2 61.2   1.0
Sexton Valley (Jacqueline's Blk) 1/17/22 2200 40.0   1.5 98   0 39.5   1.5 0.5 WSW | 258 1.4   0.1 0.00 0.00 33.1   5.1 61.1   1.5
Sebastopol Hills (Burnside Rd) 1/17/22 2200 47.4   0.6 87   4 43.9   1.9 0.5 WSW | 246 2.0   1.7 0.00 0.00 40.5   3.4 59.0   0.4
Seaview/Fort Ross (Hirsch) 1/17/22 2200 47.4   6.0 75   17 39.8   1.0 0.4 N | 8 1.2   1.5 0.00 0.00 47.0   4.7 60.4   2.8
Max     47.4 100 43.9 1.5 - 3.6 0.00 0.01 47.0 85.7
Avg     42.6 94 41.0 0.5 - 1.4 0.00 - - -
Min     39.6 75 38.5 0.0 - 0.0 0.00 0.00 33.1 58.8

Southern Sonoma County Latest

16 Stations

15 Minute Data | America/Los_Angeles
as of 1/17/22 10:06 PM PST
Station Date Time Temp (°F) RH (%) Dew Pt (°F) Wind Spd (mph) Wind Dir (°) Wind Gust (mph) Latest Rain (In) Daily Rain (In) Daily Min Temp (°F) Daily Max Temp (°F)
Upper Rincon Valley 1/17/22 2200 46.0   0.8 82   1 40.8   0.4 1.4 N | 2 2.7   1.2 0.00 0.00 42.8   3.2 60.9   2.3
Lower Bennett Valley 1/17/22 2200 37.7   0.3 97   1 36.9   0.1 2.6 SW | 219 5.0   2.9 0.00 0.00 34.0   3.1 59.0   4.6
Kenwood (Kunde) 1/17/22 2030 40.5   0.7 99   0 40.4   0.7 0.0 N | 0 0.0   0.0 0.00 0.00 33.8   3.0 64.4   1.0
Sonoma Valley (Bedrock) 1/17/22 2200 41.0   1.9 97   95 40.1   84.6 0.8 N | 7 2.4   1.0 0.00 0.01 34.9   3.9 63.8   2.7
Sonoma-West (Arnold) 1/17/22 2145 43.4   2.4 93   1 41.5   2.1 0.9 NNE | 25 2.5   0.1 0.00 0.00 38.0   2.3 65.2   2.4
Sonoma Valley HS 1/17/22 2200 44.2   2.9 98   2 43.7   2.5 0.8 WNW | 297 1.8   0.0 0.00 0.00 37.6   3.6 61.3   1.4
Sonoma East (Bundschu01) 1/17/22 2200 42.1   2.4 96   1 41.0   2.0 2.3 N | 352 3.9   1.8 0.00 0.00 35.8   3.0 63.2   1.0
Schellville (Sasaki) 1/17/22 2200 43.4   3.1 94   2 41.9   2.7 0.0 N | 0 0.0   0.0 0.00 0.00 36.6   3.6 64.2   0.8
Sonoma-SE (Napoli) 1/17/22 2200 43.6   2.9 90   3 40.8   2.0 0.0 N | 0 0.0   0.0 0.00 0.00 37.1   3.3 64.9   0.7
Carneros (Ranch 71) 1/17/22 2200 49.6   1.2 83   1 44.6   0.8 1.2 W | 264 1.8   1.7 0.00 0.00 45.4   0.0 61.2   0.9
Carneros Upper (Ranch 81) 1/17/22 2200 49.4   0.7 78   4 42.8   0.5 2.9 NNE | 33 4.3   1.2 - - 46.4   0.9 61.3   1.7
Carneros Lower (Ranch 81) 1/17/22 2200 43.3   0.5 94   2 41.8   0.2 1.9 N | 8 2.9   1.6 0.00 0.00 37.3   3.2 63.0   1.4
Rohnert Park-West (Stony Point) 1/17/22 2200 40.6   1.9 99   0 40.4   1.8 0.7 S | 173 2.6   1.2 0.00 0.00 33.7   4.7 61.7   2.4
Penngrove (Asellus) 1/17/22 2200 41.7   1.6 98   1 41.1   1.3 1.6 NW | 310 2.3   0.0 0.00 0.00 36.5   2.9 64.8   1.9
Roger's Creek (Ranch 50) 1/17/22 2200 48.8   0.5 80   0 42.8   0.4 6.6 W | 272 9.8   2.8 0.00 0.00 47.2   1.3 59.6   0.9
Petaluma (Ranch 10) 1/17/22 2200 42.4   2.8 93   2 40.4   2.0 0.9 NE | 36 2.7   1.8 0.00 0.00 36.8   2.6 67.0   3.8
Max     49.6 99 44.6 6.6 - 9.8 0.00 0.01 47.2 67.0
Avg     43.8 91 41.4 1.6 - 3.0 0.00 - - -
Min     37.7 78 36.9 0.0 - 0.0 0.00 0.00 33.7 59.0

Latest Observations

Map

Hourly Data